Etusivu
METAR-TAF:

METAR-TAF

Lentoasemat :

Saint-Dizier, Ranska

Leveyspiiri: 48-38N, Pituuspiiri: 004-54E, korkeus merenpinnasta: 139 m

Tämänhetkinen sää

Tämä raportti tehtiin 38 minuuttia sitten, kello 07.00 UTC
Tuuli 4 kn idästä/koillisesta
Lämpötila 4°C
Kosteus 87%
Ilmanpaine 1011 hPa
Näkyvyys: 5000 m
Pilvistä 1800 ft:n korkeudessa
utua

METAR: LFSI 210700Z AUTO 07004KT 5000 BR OVC018 04/02 Q1011

Aika: 08:38 (07:38 UTC)

Sääennuste

Tämä raportti tehtiin 5 tuntia ja 38 minuuttia sitten, kello 02.00 UTC
Ennuste voimassa 21. päivästä klo 03 UTC - 22. päivään klo 03 UTC
Tuuli 4 kn idästä/kaakosta
Näkyvyys: 4000 m
Hajonneita pilviä 1200 ft:n korkeudessa
utua
Ajoittain
21. päivästä klo 03 UTC - 21. päivään klo 09 UTC
Hajonneita pilviä 800 ft:n korkeudessa
heikkoa sadetta
Tulossa
21. päivästä klo 12 UTC - 21. päivään klo 15 UTC
Hajonneita pilviä 2000 ft:n korkeudessa

TAF: LFSI 210200Z 2103/2203 11004KT 4000 BR BKN012 TEMPO 2103/2109 -RA BKN008 BECMG 2112/2115 BKN020

Säähavainnot ja -ennusteet yli 4000 lentoasemalta (METAR- ja TAF-raportit).

Käytössä olevat sääasemat on merkitty karttaan keltaisilla ja punaisilla pisteillä.

Aseta hiiri pisteen päälle nähdäksesi sääaseman nimen.

Klikkaa sitten nähdäksesi säähavainnot ja -ennusteet.

Kartan vaihtaminen: klikkaa mustalla rastilla varustettuja vihreitä pisteitä, niin voit zoomata sisään; viivalla varustettua vihreää pistettä, niin voit zoomata ulos tai vihreitä nuolia, niin pääset viereisille kartoille.


METAR-TAF: